createdAt,value
2022-09-22T00:00:32.918Z,3.95
2022-09-22T00:02:04.552Z,3.89
2022-09-22T00:03:36.086Z,3.90
2022-09-22T00:05:07.458Z,4.09
2022-09-22T00:06:39.134Z,3.75
2022-09-22T00:08:10.795Z,4.23
2022-09-22T00:09:42.308Z,3.94
2022-09-22T00:11:13.550Z,3.90
2022-09-22T00:12:45.179Z,3.81
2022-09-22T00:14:16.784Z,3.78
2022-09-22T00:15:48.112Z,4.10
2022-09-22T00:17:19.931Z,4.00
2022-09-22T00:18:51.131Z,3.82
2022-09-22T00:20:22.751Z,3.90
2022-09-22T00:21:54.162Z,3.90
2022-09-22T00:23:25.972Z,3.73
2022-09-22T00:24:57.182Z,3.73
2022-09-22T00:26:29.294Z,4.15
2022-09-22T00:28:00.694Z,4.06
2022-09-22T00:29:32.325Z,4.11
2022-09-22T00:31:03.659Z,3.97
2022-09-22T00:32:35.048Z,3.91
2022-09-22T00:34:06.464Z,4.13
2022-09-22T00:35:37.890Z,3.80
2022-09-22T00:37:09.424Z,3.92
2022-09-22T00:38:40.796Z,3.89
2022-09-22T00:40:12.161Z,3.98
2022-09-22T00:41:43.494Z,3.80
2022-09-22T00:43:14.925Z,4.13
2022-09-22T00:44:46.203Z,3.80
2022-09-22T00:46:17.475Z,4.12
2022-09-22T00:47:48.937Z,3.67
2022-09-22T00:49:20.142Z,3.65
2022-09-22T00:50:51.660Z,3.80
2022-09-22T00:52:23.121Z,3.72
2022-09-22T00:53:54.713Z,3.81
2022-09-22T00:55:25.995Z,3.68
2022-09-22T00:56:57.526Z,4.12
2022-09-22T00:58:28.951Z,3.70
2022-09-22T01:00:00.684Z,3.46
2022-09-22T01:01:32.196Z,3.61
2022-09-22T01:03:03.625Z,3.41
2022-09-22T01:04:39.945Z,3.48
2022-09-22T01:06:11.839Z,4.02
2022-09-22T01:07:43.086Z,3.50
2022-09-22T01:09:14.388Z,3.59
2022-09-22T01:10:45.998Z,3.48
2022-09-22T01:12:17.510Z,3.47
2022-09-22T01:13:49.101Z,3.30
2022-09-22T01:15:20.910Z,3.54
2022-09-22T01:16:52.212Z,3.36
2022-09-22T01:18:23.991Z,3.41
2022-09-22T01:19:55.751Z,3.42
2022-09-22T01:21:27.140Z,3.25
2022-09-22T01:22:58.931Z,3.31
2022-09-22T01:24:30.373Z,3.86
2022-09-22T01:26:01.717Z,3.66
2022-09-22T01:27:33.339Z,3.45
2022-09-22T01:29:04.695Z,3.54
2022-09-22T01:30:36.480Z,3.45
2022-09-22T01:32:07.829Z,3.45
2022-09-22T01:33:39.268Z,3.02
2022-09-22T01:35:10.918Z,3.05
2022-09-22T01:36:42.258Z,3.46
2022-09-22T01:38:13.418Z,3.71
2022-09-22T01:39:45.022Z,3.47
2022-09-22T01:41:16.585Z,3.63
2022-09-22T01:42:48.444Z,3.46
2022-09-22T01:44:20.131Z,3.26
2022-09-22T01:45:51.552Z,3.34
2022-09-22T01:47:22.830Z,3.36
2022-09-22T01:48:54.047Z,3.37
2022-09-22T01:50:25.436Z,3.15
2022-09-22T01:51:56.933Z,3.30
2022-09-22T01:53:28.520Z,3.53
2022-09-22T01:54:59.928Z,3.39
2022-09-22T01:56:31.330Z,3.46
2022-09-22T01:58:02.821Z,3.30
2022-09-22T01:59:34.023Z,3.52
2022-09-22T02:01:05.511Z,3.66
2022-09-22T02:02:36.834Z,3.65
2022-09-22T02:04:08.328Z,3.64
2022-09-22T02:05:39.762Z,3.80
2022-09-22T02:07:11.301Z,3.82
2022-09-22T02:08:42.983Z,3.64
2022-09-22T02:10:14.434Z,3.91
2022-09-22T02:11:45.862Z,3.49
2022-09-22T02:13:17.468Z,3.76
2022-09-22T02:14:48.880Z,3.98
2022-09-22T02:16:20.450Z,3.75
2022-09-22T02:17:51.674Z,3.82
2022-09-22T02:19:22.990Z,3.84
2022-09-22T02:20:54.408Z,3.78
2022-09-22T02:22:25.803Z,3.64
2022-09-22T02:23:57.295Z,3.94
2022-09-22T02:25:28.687Z,3.95
2022-09-22T02:26:59.890Z,3.72
2022-09-22T02:28:31.266Z,3.99
2022-09-22T02:30:02.610Z,3.89
2022-09-22T02:31:33.908Z,3.89
2022-09-22T02:33:05.677Z,3.76
2022-09-22T02:34:37.175Z,3.90
2022-09-22T02:36:08.831Z,3.82
2022-09-22T02:37:40.111Z,3.83
2022-09-22T02:39:11.590Z,4.15
2022-09-22T02:40:43.278Z,3.62
2022-09-22T02:42:14.591Z,4.00
2022-09-22T02:43:45.989Z,4.00
2022-09-22T02:45:17.657Z,3.90
2022-09-22T02:46:49.140Z,3.76
2022-09-22T02:48:20.701Z,3.79
2022-09-22T02:49:52.047Z,4.15
2022-09-22T02:51:23.824Z,3.81
2022-09-22T02:52:55.222Z,4.51
2022-09-22T02:54:26.772Z,4.17
2022-09-22T02:55:58.238Z,4.48
2022-09-22T02:57:29.682Z,4.50
2022-09-22T02:59:01.065Z,4.45
2022-09-22T03:00:32.512Z,4.39
2022-09-22T03:02:03.863Z,4.41
2022-09-22T03:03:35.609Z,4.27
2022-09-22T03:05:06.963Z,4.07
2022-09-22T03:06:38.566Z,4.49
2022-09-22T03:08:10.459Z,4.36
2022-09-22T03:09:41.933Z,4.07
2022-09-22T03:11:13.503Z,4.10
2022-09-22T03:13:09.082Z,4.20
2022-09-22T03:14:46.699Z,4.27
2022-09-22T03:16:18.007Z,4.04
2022-09-22T03:17:49.331Z,4.05
2022-09-22T03:19:20.993Z,4.10
2022-09-22T03:20:52.320Z,4.16
2022-09-22T03:22:23.606Z,3.92
2022-09-22T03:23:55.076Z,4.00
2022-09-22T03:25:26.584Z,3.84
2022-09-22T03:26:58.017Z,4.00
2022-09-22T03:28:29.288Z,4.02
2022-09-22T03:30:00.569Z,3.94
2022-09-22T03:31:31.786Z,3.80
2022-09-22T03:33:03.034Z,4.02
2022-09-22T03:34:34.562Z,3.76
2022-09-22T03:36:06.111Z,3.86
2022-09-22T03:37:37.436Z,3.98
2022-09-22T03:39:08.751Z,4.00
2022-09-22T03:40:40.230Z,4.08
2022-09-22T03:42:11.610Z,3.81
2022-09-22T03:43:42.931Z,3.85
2022-09-22T03:45:14.378Z,4.06
2022-09-22T03:46:45.861Z,3.83
2022-09-22T03:48:17.229Z,3.70
2022-09-22T03:49:48.619Z,3.69
2022-09-22T03:51:20.041Z,3.81
2022-09-22T03:52:51.282Z,3.88
2022-09-22T03:54:22.503Z,3.60
2022-09-22T03:55:54.094Z,3.85
2022-09-22T03:57:25.443Z,4.10
2022-09-22T03:58:56.792Z,4.12
2022-09-22T04:00:28.161Z,4.22
2022-09-22T04:01:59.462Z,4.27
2022-09-22T04:03:31.105Z,4.16
2022-09-22T04:05:02.694Z,3.69
2022-09-22T04:06:35.124Z,4.26
2022-09-22T04:08:06.863Z,3.82
2022-09-22T04:09:38.255Z,4.14
2022-09-22T04:11:09.781Z,4.18
2022-09-22T04:12:41.294Z,4.01
2022-09-22T04:14:12.874Z,3.82
2022-09-22T04:15:44.481Z,3.58
2022-09-22T04:17:15.747Z,3.82
2022-09-22T04:18:47.152Z,3.95
2022-09-22T04:20:18.462Z,4.14
2022-09-22T04:21:56.140Z,4.18
2022-09-22T04:23:28.864Z,4.05
2022-09-22T04:25:00.179Z,3.98
2022-09-22T04:26:31.608Z,3.90
2022-09-22T04:28:05.561Z,3.92
2022-09-22T04:29:37.405Z,3.94
2022-09-22T04:31:08.841Z,4.33
2022-09-22T04:32:40.292Z,4.04
2022-09-22T04:34:11.558Z,4.26
2022-09-22T04:35:43.117Z,3.90
2022-09-22T04:37:14.728Z,4.01
2022-09-22T04:38:46.023Z,3.79
2022-09-22T04:40:17.354Z,3.77
2022-09-22T04:41:48.696Z,3.94
2022-09-22T04:43:20.175Z,3.87
2022-09-22T04:44:51.611Z,3.79
2022-09-22T04:46:23.005Z,4.04
2022-09-22T04:47:54.432Z,4.28
2022-09-22T04:49:26.010Z,4.16
2022-09-22T04:50:57.675Z,4.04
2022-09-22T04:52:29.121Z,4.08
2022-09-22T04:54:00.545Z,4.16
2022-09-22T04:55:31.991Z,4.11
2022-09-22T04:57:03.366Z,4.04
2022-09-22T04:58:35.055Z,3.88
2022-09-22T05:00:06.516Z,4.12
2022-09-22T05:01:37.941Z,4.17
2022-09-22T05:03:09.403Z,4.11
2022-09-22T05:04:40.833Z,4.18
2022-09-22T05:06:12.289Z,4.32
2022-09-22T05:07:43.492Z,4.46
2022-09-22T05:09:15.006Z,4.51
2022-09-22T05:10:46.341Z,4.44
2022-09-22T05:12:17.875Z,4.50
2022-09-22T05:13:49.066Z,4.66
2022-09-22T05:15:20.358Z,4.85
2022-09-22T05:16:51.863Z,4.56
2022-09-22T05:18:23.351Z,4.80
2022-09-22T05:19:54.576Z,4.66
2022-09-22T05:21:26.345Z,5.71
2022-09-22T05:22:58.101Z,5.76
2022-09-22T05:24:29.306Z,5.31
2022-09-22T05:26:00.587Z,5.15
2022-09-22T05:27:31.847Z,4.71
2022-09-22T05:29:03.354Z,4.77
2022-09-22T05:31:07.407Z,4.81
2022-09-22T05:32:38.688Z,4.70
2022-09-22T05:34:09.921Z,4.70
2022-09-22T05:35:41.642Z,4.97
2022-09-22T05:37:13.083Z,4.64
2022-09-22T05:38:44.379Z,4.39
2022-09-22T05:40:15.812Z,4.67
2022-09-22T05:41:47.439Z,4.47
2022-09-22T05:43:18.915Z,4.61
2022-09-22T05:44:50.424Z,4.29
2022-09-22T05:46:21.833Z,4.13
2022-09-22T05:47:53.158Z,4.27
2022-09-22T05:49:24.511Z,4.08
2022-09-22T05:50:56.091Z,4.13
2022-09-22T05:52:27.542Z,4.29
2022-09-22T05:53:59.093Z,4.62
2022-09-22T05:55:30.404Z,4.74
2022-09-22T05:57:01.736Z,4.78
2022-09-22T05:58:32.976Z,4.24
2022-09-22T06:00:04.261Z,4.32
2022-09-22T06:01:35.774Z,4.60
2022-09-22T06:03:07.259Z,4.46
2022-09-22T06:04:44.151Z,4.60
2022-09-22T06:06:18.174Z,4.19
2022-09-22T06:07:49.720Z,4.43
2022-09-22T06:09:21.616Z,4.38
2022-09-22T06:10:53.024Z,4.26
2022-09-22T06:12:24.496Z,4.18
2022-09-22T06:14:05.824Z,4.15
2022-09-22T06:15:37.064Z,4.36
2022-09-22T06:17:09.083Z,4.19
2022-09-22T06:18:41.014Z,4.23
2022-09-22T06:20:12.944Z,4.18
2022-09-22T06:21:44.617Z,4.02
2022-09-22T06:23:15.991Z,4.69
2022-09-22T06:24:47.578Z,4.27
2022-09-22T06:26:18.965Z,4.40
2022-09-22T06:27:50.419Z,4.35
2022-09-22T06:29:27.026Z,4.49
2022-09-22T06:30:58.577Z,4.17
2022-09-22T06:32:35.034Z,4.20
2022-09-22T06:34:07.713Z,4.04
2022-09-22T06:35:39.377Z,4.35
2022-09-22T06:37:10.646Z,4.51
2022-09-22T06:38:42.356Z,4.41
2022-09-22T06:40:17.331Z,4.44
2022-09-22T06:41:49.045Z,4.40
2022-09-22T06:43:20.664Z,4.36
2022-09-22T06:44:52.078Z,4.74
2022-09-22T06:46:23.693Z,4.74
2022-09-22T06:47:55.112Z,4.30
2022-09-22T06:49:26.417Z,4.02
2022-09-22T06:50:57.900Z,4.05
2022-09-22T06:52:39.309Z,3.98
2022-09-22T06:54:11.080Z,3.78
2022-09-22T06:55:42.825Z,3.85
2022-09-22T06:57:24.401Z,3.90
2022-09-22T06:59:09.871Z,3.90
2022-09-22T07:00:49.932Z,3.63
2022-09-22T07:02:21.455Z,3.78
2022-09-22T07:05:57.773Z,3.74
2022-09-22T07:07:30.304Z,3.79
2022-09-22T07:09:01.971Z,3.77
2022-09-22T07:10:33.575Z,3.71
2022-09-22T07:12:05.269Z,3.78
2022-09-22T07:13:41.809Z,3.77
2022-09-22T07:15:12.975Z,3.67
2022-09-22T07:16:44.287Z,3.43
2022-09-22T07:18:15.899Z,3.63
2022-09-22T07:19:48.405Z,3.70
2022-09-22T07:21:19.748Z,3.98
2022-09-22T07:22:51.163Z,3.59
2022-09-22T07:24:22.470Z,3.72
2022-09-22T07:25:53.910Z,3.59
2022-09-22T07:27:25.343Z,3.49
2022-09-22T07:28:56.837Z,3.62
2022-09-22T07:30:28.556Z,3.75
2022-09-22T07:32:00.608Z,4.02
2022-09-22T07:33:32.098Z,3.87
2022-09-22T07:35:03.575Z,3.78
2022-09-22T07:36:35.414Z,3.77
2022-09-22T07:38:06.833Z,3.76
2022-09-22T07:39:38.515Z,4.66
2022-09-22T07:41:10.572Z,4.40
2022-09-22T07:42:42.491Z,8.00
2022-09-22T07:44:14.207Z,5.02
2022-09-22T07:45:45.621Z,4.56
2022-09-22T07:47:17.085Z,3.68
2022-09-22T07:48:48.621Z,3.81
2022-09-22T07:50:20.530Z,3.87
2022-09-22T07:51:52.121Z,3.70
2022-09-22T07:53:23.441Z,3.47
2022-09-22T07:54:54.827Z,3.71
2022-09-22T07:56:26.102Z,3.51
2022-09-22T07:57:57.718Z,3.38
2022-09-22T07:59:34.047Z,3.65
2022-09-22T08:01:05.521Z,3.50
2022-09-22T08:02:37.169Z,3.26
2022-09-22T08:04:08.497Z,3.12
2022-09-22T08:05:39.901Z,3.16
2022-09-22T08:07:11.554Z,3.48
2022-09-22T08:08:48.922Z,3.20
2022-09-22T08:10:20.600Z,2.97
2022-09-22T08:11:52.219Z,3.10
2022-09-22T08:13:28.474Z,3.20
2022-09-22T08:14:59.896Z,3.15
2022-09-22T08:16:31.338Z,3.06
2022-09-22T08:18:08.773Z,3.17
2022-09-22T08:19:40.668Z,3.70
2022-09-22T08:21:12.124Z,3.08
2022-09-22T08:22:44.808Z,3.05
2022-09-22T08:24:21.276Z,2.74
2022-09-22T08:25:52.851Z,2.82
2022-09-22T08:27:25.085Z,2.71
2022-09-22T08:28:56.824Z,2.64
2022-09-22T08:30:33.439Z,2.58
2022-09-22T08:32:04.828Z,2.86
2022-09-22T08:33:36.205Z,2.78
2022-09-22T08:35:07.492Z,2.65
2022-09-22T08:36:39.372Z,2.56
2022-09-22T08:38:12.959Z,2.25
2022-09-22T08:39:44.372Z,2.30
2022-09-22T08:41:16.089Z,2.41
2022-09-22T08:42:47.696Z,2.45
2022-09-22T08:44:18.968Z,2.27
2022-09-22T08:45:55.453Z,2.24
2022-09-22T08:47:28.083Z,2.06
2022-09-22T08:49:00.296Z,1.95
2022-09-22T08:50:34.020Z,2.12
2022-09-22T08:52:11.325Z,1.95
2022-09-22T08:53:42.829Z,2.01
2022-09-22T08:55:14.210Z,1.85
2022-09-22T08:56:45.630Z,4.07
2022-09-22T08:58:17.301Z,3.01
2022-09-22T08:59:48.975Z,2.52
2022-09-22T09:01:20.307Z,2.33
2022-09-22T09:02:52.029Z,2.12
2022-09-22T09:04:23.542Z,2.27
2022-09-22T09:05:54.932Z,2.18
2022-09-22T09:07:26.715Z,2.10
2022-09-22T09:09:01.379Z,2.23
2022-09-22T09:10:36.234Z,1.99
2022-09-22T09:12:08.559Z,2.54
2022-09-22T09:13:45.054Z,1.96
2022-09-22T09:15:16.725Z,2.29
2022-09-22T09:16:48.512Z,2.08
2022-09-22T09:18:20.086Z,2.10
2022-09-22T09:19:52.022Z,1.99
2022-09-22T09:21:23.513Z,2.09
2022-09-22T09:22:54.914Z,2.17
2022-09-22T09:26:28.668Z,1.65
2022-09-22T09:27:59.991Z,1.91
2022-09-22T09:29:31.600Z,1.99
2022-09-22T09:31:02.924Z,1.92
2022-09-22T09:32:34.254Z,1.82
2022-09-22T09:34:05.766Z,1.77
2022-09-22T09:35:41.189Z,1.70
2022-09-22T09:37:13.484Z,1.86
2022-09-22T09:38:44.899Z,1.79
2022-09-22T09:40:16.464Z,1.82
2022-09-22T09:41:48.132Z,1.78
2022-09-22T09:43:20.544Z,1.73
2022-09-22T09:44:52.070Z,1.60
2022-09-22T09:46:23.619Z,1.40
2022-09-22T09:47:59.182Z,1.60
2022-09-22T09:49:30.742Z,1.76
2022-09-22T09:51:02.103Z,2.13
2022-09-22T09:52:33.508Z,2.07
2022-09-22T09:54:05.049Z,1.48
2022-09-22T09:55:36.598Z,1.34
2022-09-22T09:57:08.567Z,1.56
2022-09-22T09:58:40.372Z,1.55
2022-09-22T10:00:11.835Z,1.48
2022-09-22T10:01:44.362Z,1.14
2022-09-22T10:03:15.885Z,1.21
2022-09-22T10:04:47.531Z,1.21
2022-09-22T10:06:19.211Z,1.39
2022-09-22T10:07:50.704Z,1.28
2022-09-22T10:09:22.260Z,1.24
2022-09-22T10:10:53.633Z,1.08
2022-09-22T10:12:25.201Z,1.15
2022-09-22T10:13:56.704Z,1.34
2022-09-22T10:15:28.301Z,1.35
2022-09-22T10:16:59.762Z,0.98
2022-09-22T10:18:41.210Z,1.12
2022-09-22T10:20:13.114Z,1.10
2022-09-22T10:21:44.992Z,1.11
2022-09-22T10:23:16.784Z,1.62
2022-09-22T10:24:48.332Z,1.70
2022-09-22T10:26:19.809Z,1.33
2022-09-22T10:27:51.400Z,0.79
2022-09-22T10:29:22.682Z,0.66
2022-09-22T10:30:54.418Z,0.88
2022-09-22T10:32:25.811Z,0.68
2022-09-22T10:33:57.401Z,0.80
2022-09-22T10:35:28.705Z,0.87
2022-09-22T10:37:00.035Z,0.81
2022-09-22T10:38:31.448Z,1.06
2022-09-22T10:40:02.910Z,0.89
2022-09-22T10:41:34.316Z,0.87
2022-09-22T10:43:05.984Z,0.84
2022-09-22T10:44:40.320Z,0.75
2022-09-22T10:46:13.459Z,0.99
2022-09-22T10:47:49.870Z,0.88
2022-09-22T10:49:26.417Z,0.84
2022-09-22T10:51:02.848Z,1.11
2022-09-22T10:52:39.422Z,1.18
2022-09-22T10:54:11.143Z,1.02
2022-09-22T10:55:48.815Z,1.22
2022-09-22T10:57:25.246Z,1.13
2022-09-22T10:58:57.165Z,1.12
2022-09-22T11:00:28.638Z,1.11
2022-09-22T11:02:00.319Z,0.93
2022-09-22T11:03:31.688Z,0.95
2022-09-22T11:05:03.079Z,0.96
2022-09-22T11:06:34.513Z,0.87
2022-09-22T11:08:06.008Z,0.93
2022-09-22T11:09:37.433Z,0.86
2022-09-22T11:11:08.941Z,0.93
2022-09-22T11:12:40.429Z,1.00
2022-09-22T11:14:11.855Z,0.81
2022-09-22T11:15:43.454Z,0.81
2022-09-22T11:17:15.104Z,0.97
2022-09-22T11:18:46.514Z,1.06
2022-09-22T11:20:18.066Z,1.13
2022-09-22T11:21:49.628Z,1.03
2022-09-22T11:23:22.281Z,0.91
2022-09-22T11:24:53.801Z,0.94
2022-09-22T11:26:25.348Z,0.92
2022-09-22T11:27:56.814Z,0.90
2022-09-22T11:29:28.449Z,0.83
2022-09-22T11:31:00.141Z,0.86
2022-09-22T11:32:31.658Z,0.85
2022-09-22T11:34:03.168Z,0.94
2022-09-22T11:35:34.543Z,0.83
2022-09-22T11:37:05.963Z,0.84
2022-09-22T11:38:37.391Z,0.81
2022-09-22T11:40:08.881Z,0.86
2022-09-22T11:41:40.593Z,0.91
2022-09-22T11:43:12.165Z,0.77
2022-09-22T11:44:43.663Z,0.70
2022-09-22T11:46:15.302Z,0.89
2022-09-22T11:47:47.035Z,0.88
2022-09-22T11:49:18.442Z,0.92
2022-09-22T11:50:50.245Z,1.01
2022-09-22T11:52:21.740Z,0.82
2022-09-22T11:53:53.216Z,0.85
2022-09-22T11:55:24.661Z,0.83
2022-09-22T11:56:57.293Z,0.78
2022-09-22T11:58:28.929Z,0.79
2022-09-22T12:00:00.284Z,0.78
2022-09-22T12:01:31.789Z,0.83
2022-09-22T12:03:03.744Z,0.82
2022-09-22T12:04:35.239Z,0.81
2022-09-22T12:06:06.660Z,0.86
2022-09-22T12:07:38.474Z,0.80
2022-09-22T12:09:09.870Z,0.77
2022-09-22T12:10:41.327Z,0.81
2022-09-22T12:12:12.899Z,0.91
2022-09-22T12:13:44.369Z,0.91
2022-09-22T12:15:15.808Z,0.84
2022-09-22T12:16:47.383Z,0.76
2022-09-22T12:18:18.799Z,0.81
2022-09-22T12:19:50.188Z,0.89
2022-09-22T12:22:09.995Z,0.76
2022-09-22T12:23:41.473Z,0.68
2022-09-22T12:25:20.802Z,0.69
2022-09-22T12:26:57.500Z,0.68
2022-09-22T12:28:29.151Z,0.75
2022-09-22T12:30:00.751Z,0.72
2022-09-22T12:31:32.256Z,0.67
2022-09-22T12:33:03.674Z,0.64
2022-09-22T12:34:35.175Z,0.65
2022-09-22T12:36:06.971Z,0.84
2022-09-22T12:37:38.537Z,0.72
2022-09-22T12:39:10.094Z,0.91
2022-09-22T12:40:41.766Z,0.78
2022-09-22T12:42:13.421Z,0.69
2022-09-22T12:43:45.252Z,0.64
2022-09-22T12:45:16.874Z,0.70
2022-09-22T12:46:48.361Z,0.75
2022-09-22T12:48:19.797Z,0.66
2022-09-22T12:49:51.505Z,0.76
2022-09-22T12:51:23.008Z,0.73
2022-09-22T12:52:54.545Z,0.99
2022-09-22T12:54:25.955Z,0.86
2022-09-22T12:55:57.546Z,0.81
2022-09-22T12:57:28.957Z,0.83
2022-09-22T12:59:00.738Z,1.36
2022-09-22T13:00:33.196Z,1.76
2022-09-22T13:02:04.989Z,0.84
2022-09-22T13:03:36.755Z,0.84
2022-09-22T13:05:08.256Z,0.92
2022-09-22T13:06:39.649Z,1.23
2022-09-22T13:08:11.053Z,1.62
2022-09-22T13:09:42.441Z,2.92
2022-09-22T13:11:13.886Z,1.35
2022-09-22T13:12:45.598Z,1.03
2022-09-22T13:14:18.437Z,0.81
2022-09-22T13:15:50.073Z,0.77
2022-09-22T13:17:21.466Z,0.71
2022-09-22T13:18:53.154Z,0.85
2022-09-22T13:20:29.785Z,0.72
2022-09-22T13:22:01.177Z,0.80
2022-09-22T13:23:32.564Z,0.74
2022-09-22T13:25:03.951Z,0.75
2022-09-22T13:26:36.313Z,1.03
2022-09-22T13:28:07.722Z,0.76
2022-09-22T13:29:39.184Z,0.76
2022-09-22T13:31:10.596Z,0.72
2022-09-22T13:32:42.054Z,0.79
2022-09-22T13:34:13.506Z,0.83
2022-09-22T13:35:44.949Z,1.00
2022-09-22T13:37:16.365Z,0.78
2022-09-22T13:38:47.800Z,0.91
2022-09-22T13:40:19.408Z,0.91
2022-09-22T13:41:51.143Z,0.80
2022-09-22T13:43:22.667Z,0.85
2022-09-22T13:44:54.080Z,0.81
2022-09-22T13:46:25.610Z,0.84
2022-09-22T13:47:57.690Z,0.91
2022-09-22T13:49:29.024Z,0.88
2022-09-22T13:51:00.396Z,0.84
2022-09-22T13:52:31.801Z,0.85
2022-09-22T13:54:03.340Z,0.93
2022-09-22T13:55:34.820Z,0.89
2022-09-22T13:57:06.374Z,0.93
2022-09-22T13:58:37.774Z,0.87
2022-09-22T14:00:09.662Z,0.90
2022-09-22T14:01:41.343Z,0.78
2022-09-22T14:03:13.094Z,0.91
2022-09-22T14:04:44.583Z,0.89
2022-09-22T14:06:15.996Z,0.80
2022-09-22T14:08:07.809Z,0.84
2022-09-22T14:09:42.588Z,0.86
2022-09-22T14:11:13.994Z,0.96
2022-09-22T14:12:45.553Z,0.81
2022-09-22T14:14:17.024Z,0.86
2022-09-22T14:15:48.493Z,0.81
2022-09-22T14:17:19.966Z,0.82
2022-09-22T14:18:51.478Z,1.05
2022-09-22T14:20:22.992Z,1.79
2022-09-22T14:21:54.410Z,1.00
2022-09-22T14:23:25.856Z,0.87
2022-09-22T14:24:57.255Z,0.91
2022-09-22T14:26:28.667Z,0.95
2022-09-22T14:28:00.236Z,0.87
2022-09-22T14:29:31.743Z,0.92
2022-09-22T14:31:03.117Z,0.91
2022-09-22T14:32:34.578Z,0.93
2022-09-22T14:34:06.022Z,0.87
2022-09-22T14:35:37.504Z,1.03
2022-09-22T14:37:08.989Z,0.83
2022-09-22T14:38:45.848Z,0.93
2022-09-22T14:40:18.718Z,1.05
2022-09-22T14:41:50.293Z,1.12
2022-09-22T14:43:21.886Z,1.03
2022-09-22T14:44:53.231Z,1.08
2022-09-22T14:46:24.701Z,0.95
2022-09-22T14:47:56.119Z,0.91
2022-09-22T14:49:27.578Z,0.97
2022-09-22T14:50:59.175Z,1.04
2022-09-22T14:52:30.616Z,0.94
2022-09-22T14:54:03.045Z,0.85
2022-09-22T14:55:34.644Z,0.87
2022-09-22T14:57:05.992Z,0.75
2022-09-22T14:58:40.469Z,0.74
2022-09-22T15:00:12.283Z,0.93
2022-09-22T15:01:43.740Z,0.98
2022-09-22T15:03:15.309Z,0.90
2022-09-22T15:04:47.037Z,0.99
2022-09-22T15:06:18.464Z,0.98
2022-09-22T15:07:49.697Z,0.88
2022-09-22T15:09:21.145Z,0.89
2022-09-22T15:10:52.511Z,0.93
2022-09-22T15:12:23.880Z,0.86
2022-09-22T15:13:55.329Z,0.80
2022-09-22T15:15:26.828Z,1.05
2022-09-22T15:17:03.325Z,0.92
2022-09-22T15:18:34.752Z,0.91
2022-09-22T15:20:06.283Z,0.92
2022-09-22T15:21:38.012Z,0.88
2022-09-22T15:23:09.435Z,0.95
2022-09-22T15:24:40.851Z,0.90
2022-09-22T15:26:12.204Z,0.85
2022-09-22T15:27:43.594Z,0.90
2022-09-22T15:29:14.926Z,0.80
2022-09-22T15:30:46.502Z,0.93
2022-09-22T15:32:17.835Z,1.01
2022-09-22T15:33:49.221Z,1.25
2022-09-22T15:35:20.608Z,2.15
2022-09-22T15:36:52.053Z,6.15
2022-09-22T15:38:23.470Z,4.96
2022-09-22T15:39:55.179Z,1.64
2022-09-22T15:41:26.595Z,2.02
2022-09-22T15:43:12.116Z,0.95
2022-09-22T15:44:44.386Z,1.04
2022-09-22T15:46:15.869Z,1.07
2022-09-22T15:47:47.375Z,0.97
2022-09-22T15:49:18.812Z,0.92
2022-09-22T15:50:50.270Z,0.94
2022-09-22T15:52:21.838Z,1.20
2022-09-22T15:53:53.482Z,0.95
2022-09-22T15:55:24.892Z,0.96
2022-09-22T15:56:56.433Z,0.89
2022-09-22T15:58:27.824Z,0.76
2022-09-22T16:00:00.518Z,0.84
2022-09-22T16:01:31.993Z,0.88
2022-09-22T16:03:03.376Z,0.78
2022-09-22T16:04:34.869Z,0.97
2022-09-22T16:06:06.350Z,1.00
2022-09-22T16:07:38.843Z,1.06
2022-09-22T16:09:10.289Z,1.08
2022-09-22T16:10:41.780Z,0.96
2022-09-22T16:12:14.474Z,0.90
2022-09-22T16:13:45.936Z,0.82
2022-09-22T16:15:17.294Z,0.91
2022-09-22T16:16:48.740Z,1.05
2022-09-22T16:18:20.149Z,1.08
2022-09-22T16:19:51.530Z,0.86
2022-09-22T16:21:22.949Z,1.05
2022-09-22T16:22:54.520Z,0.84
2022-09-22T16:24:26.040Z,1.00
2022-09-22T16:25:57.508Z,1.04
2022-09-22T16:27:29.252Z,1.02
2022-09-22T16:29:00.673Z,1.00
2022-09-22T16:30:32.302Z,0.98
2022-09-22T16:32:03.668Z,1.01
2022-09-22T16:33:35.130Z,0.97
2022-09-22T16:35:06.649Z,1.11
2022-09-22T16:36:38.229Z,0.98
2022-09-22T16:38:09.756Z,0.96
2022-09-22T16:39:41.327Z,2.86
2022-09-22T16:41:12.881Z,1.64
2022-09-22T16:42:44.277Z,1.11
2022-09-22T16:44:15.626Z,1.03
2022-09-22T16:45:47.187Z,1.34
2022-09-22T16:47:18.521Z,0.98
2022-09-22T16:48:49.893Z,1.15
2022-09-22T16:50:21.280Z,1.04
2022-09-22T16:51:52.779Z,1.03
2022-09-22T16:53:24.125Z,1.12
2022-09-22T16:54:55.503Z,1.60
2022-09-22T16:56:26.869Z,8.63
2022-09-22T16:58:04.175Z,16.47
2022-09-22T16:59:35.589Z,2.86
2022-09-22T17:01:07.074Z,1.56
2022-09-22T17:02:38.461Z,1.50
2022-09-22T17:04:09.797Z,1.33
2022-09-22T17:05:41.174Z,1.29
2022-09-22T17:07:19.430Z,1.34
2022-09-22T17:08:51.201Z,1.43
2022-09-22T17:10:22.819Z,1.27
2022-09-22T17:11:54.431Z,1.37
2022-09-22T17:13:25.828Z,1.23
2022-09-22T17:14:57.464Z,1.43
2022-09-22T17:16:29.444Z,1.39
2022-09-22T17:18:00.918Z,1.30
2022-09-22T17:19:32.606Z,1.33
2022-09-22T17:21:04.561Z,1.42
2022-09-22T17:22:41.137Z,1.27
2022-09-22T17:24:13.387Z,1.10
2022-09-22T17:25:44.824Z,1.26
2022-09-22T17:27:16.263Z,1.31
2022-09-22T17:28:53.253Z,1.21
2022-09-22T17:30:24.731Z,1.33
2022-09-22T17:32:01.995Z,1.32
2022-09-22T17:33:39.213Z,1.28
2022-09-22T17:35:10.920Z,1.26
2022-09-22T17:36:42.848Z,1.33
2022-09-22T17:38:19.627Z,1.41
2022-09-22T17:39:51.443Z,1.45
2022-09-22T17:41:22.920Z,1.50
2022-09-22T17:42:54.541Z,1.43
2022-09-22T17:44:30.991Z,1.46
2022-09-22T17:46:02.773Z,1.62
2022-09-22T17:47:34.827Z,1.34
2022-09-22T17:49:06.525Z,1.36
2022-09-22T17:50:37.856Z,1.44
2022-09-22T17:52:09.393Z,1.51
2022-09-22T17:53:57.569Z,1.47
2022-09-22T17:57:31.242Z,1.61
2022-09-22T17:59:07.854Z,1.77
2022-09-22T18:00:50.428Z,1.58
2022-09-22T18:02:21.875Z,1.62
2022-09-22T18:04:15.669Z,1.83
2022-09-22T18:05:47.016Z,1.89
2022-09-22T18:07:43.774Z,1.83
2022-09-22T18:09:20.103Z,1.64
2022-09-22T18:10:51.886Z,1.84
2022-09-22T18:12:28.463Z,1.91
2022-09-22T18:13:59.918Z,1.67
2022-09-22T18:15:32.062Z,1.90
2022-09-22T18:17:03.894Z,2.04
2022-09-22T18:18:35.409Z,2.27
2022-09-22T18:20:06.723Z,2.14
2022-09-22T18:21:38.351Z,2.31
2022-09-22T18:23:19.749Z,2.36
2022-09-22T18:24:51.068Z,2.41
2022-09-22T18:26:22.532Z,2.72
2022-09-22T18:27:54.051Z,2.66
2022-09-22T18:29:25.344Z,2.66
2022-09-22T18:30:56.717Z,2.45
2022-09-22T18:32:40.294Z,11.02
2022-09-22T18:34:16.807Z,6.34
2022-09-22T18:36:03.344Z,11.14
2022-09-22T18:38:02.404Z,3.58
2022-09-22T18:39:33.729Z,2.64
2022-09-22T18:41:27.230Z,2.17
2022-09-22T18:45:11.625Z,2.06
2022-09-22T18:47:09.082Z,2.18
2022-09-22T18:48:40.512Z,2.18
2022-09-22T18:50:35.530Z,2.32
2022-09-22T18:52:06.992Z,2.69
2022-09-22T18:53:43.782Z,3.05
2022-09-22T18:55:20.379Z,2.94
2022-09-22T18:56:52.087Z,2.79
2022-09-22T18:58:23.680Z,2.74
2022-09-22T18:59:55.364Z,2.86
2022-09-22T19:01:26.846Z,2.69
2022-09-22T19:03:04.589Z,3.10
2022-09-22T19:04:35.936Z,3.31
2022-09-22T19:06:12.922Z,2.97
2022-09-22T19:07:45.002Z,3.35
2022-09-22T19:09:16.415Z,3.72
2022-09-22T19:10:53.391Z,3.19
2022-09-22T19:12:30.241Z,3.20
2022-09-22T19:14:06.717Z,3.20
2022-09-22T19:15:38.264Z,2.86
2022-09-22T19:17:10.001Z,2.81
2022-09-22T19:18:41.493Z,2.81
2022-09-22T19:20:12.857Z,2.64
2022-09-22T19:21:44.198Z,2.88
2022-09-22T19:23:16.328Z,2.77
2022-09-22T19:24:47.720Z,2.78
2022-09-22T19:26:33.231Z,2.99
2022-09-22T19:28:05.144Z,2.98
2022-09-22T19:29:47.954Z,3.24
2022-09-22T19:31:19.294Z,3.46
2022-09-22T19:32:51.051Z,3.52
2022-09-22T19:34:22.674Z,3.33
2022-09-22T19:35:54.078Z,3.19
2022-09-22T19:37:25.613Z,3.50
2022-09-22T19:39:07.122Z,3.30
2022-09-22T19:40:43.751Z,3.07
2022-09-22T19:42:15.474Z,3.45
2022-09-22T19:43:46.856Z,3.55
2022-09-22T19:45:23.206Z,3.41
2022-09-22T19:46:54.705Z,3.54
2022-09-22T19:48:26.055Z,5.29
2022-09-22T19:50:02.442Z,7.79
2022-09-22T19:51:43.852Z,8.80
2022-09-22T19:53:15.314Z,6.90
2022-09-22T19:54:46.672Z,5.13
2022-09-22T19:56:28.476Z,5.71
2022-09-22T19:57:59.846Z,5.75
2022-09-22T19:59:38.535Z,6.43
2022-09-22T20:01:26.290Z,4.99
2022-09-22T20:03:07.832Z,4.00
2022-09-22T20:04:44.332Z,3.41
2022-09-22T20:06:15.860Z,3.12
2022-09-22T20:07:47.370Z,2.92
2022-09-22T20:09:18.891Z,2.84
2022-09-22T20:10:55.376Z,3.41
2022-09-22T20:12:37.506Z,3.39
2022-09-22T20:14:08.885Z,3.37
2022-09-22T20:15:45.490Z,3.22
2022-09-22T20:17:17.327Z,3.19
2022-09-22T20:18:48.613Z,3.54
2022-09-22T20:20:20.044Z,3.23
2022-09-22T20:21:51.494Z,3.04
2022-09-22T20:23:22.816Z,3.54
2022-09-22T20:24:54.361Z,3.29
2022-09-22T20:26:25.850Z,4.42
2022-09-22T20:27:57.433Z,6.76
2022-09-22T20:29:28.853Z,7.17
2022-09-22T20:31:05.537Z,5.21
2022-09-22T20:32:37.221Z,4.29
2022-09-22T20:34:08.537Z,2.94
2022-09-22T20:35:40.009Z,2.71
2022-09-22T20:37:11.671Z,2.98
2022-09-22T20:38:43.205Z,3.31
2022-09-22T20:40:14.580Z,3.47